Pella, Idaho
Current Conditions -  °F | °C
As of 6:53 AM on Thursday 27 Nov 2014 (Local Time) from KBYI Reporting Station
Clear Clear  
Wind Chill: 42°   Ceiling: Unl
Heat Index: 47°   Visibility: 10mi
Dew Point: 29°   Wind: 12mph
Humidity: 50%   Direction: 220°SW
Pressure: 30.19"   Gusts: NA
Location:  42.5011°N, 113.814°W
Report Text: KBYI 271353Z AUTO 22010KT 10SM CLR 08/M02 A3019 RMK AO2 SLP219 T00831017
Loading
Personal Weather Stations






























Interactive Weather Map New forecast layout! Learn more

10-Day Weather Forecast

Advertisements
Track Severe Weather on mobile